Time;durP1;ratioP1;P1;durP2;ratioP2;P2;SDS_P1;SDS_P2;PMS_P1;PMS_P2;Temp;Humidity;BMP_temperature;BMP_pressure;BME280_temperature;BME280_humidity;BME280_pressure;Samples;Min_cycle;Max_cycle;Signal;HPM_P1;HPM_P2
2022/01/21 00:01:13;;;;;;;;;;;0.50;99.90;;;;;;5094332;28;20069;-67
2022/01/21 00:03:39;;;;;;;;;;;0.40;99.90;;;;;;5089723;28;19915;-66
2022/01/21 00:06:06;;;;;;;;;;;0.40;99.90;;;;;;5093575;28;19900;-67
2022/01/21 00:08:36;;;;;;;;;;;0.40;99.90;;;;;;5093977;28;20334;-66
2022/01/21 00:11:01;;;;;;;;;;;0.30;99.90;;;;;;5093042;28;19911;-66
2022/01/21 00:13:34;;;;;;;;;;;0.30;99.90;;;;;;5092481;28;19904;-66
2022/01/21 00:16:04;;;;;;;;;;;0.30;99.90;;;;;;5092927;28;19904;-65
2022/01/21 00:18:30;;;;;;;;;;;0.20;99.90;;;;;;5092440;28;19912;-66
2022/01/21 00:31:52;;;;;;;;;;;0.10;99.90;;;;;;5090967;28;20002;-65
2022/01/21 00:34:18;;;;;;;;;;;0.20;99.90;;;;;;5092277;28;19916;-66
2022/01/21 00:36:43;;;;;;;;;;;0.20;99.90;;;;;;5093343;28;19912;-66
2022/01/21 00:39:10;;;;;;;;;;;0.30;99.90;;;;;;5092431;28;19911;-66
2022/01/21 00:41:41;;;;;;;;;;;0.30;99.90;;;;;;5092610;28;19939;-65
2022/01/21 00:44:06;;;;;;;;;;;0.30;99.90;;;;;;5090003;28;20565;-64
2022/01/21 00:46:32;;;;;;;;;;;0.40;99.90;;;;;;5092575;28;20002;-65
2022/01/21 00:48:58;;;;;;;;;;;0.40;99.90;;;;;;5091661;28;19951;-64
2022/01/21 00:51:23;;;;;;;;;;;0.40;99.90;;;;;;5092926;28;20001;-65
2022/01/21 00:53:49;;;;;;;;;;;0.40;99.90;;;;;;5092007;28;19908;-64
2022/01/21 00:56:14;;;;;;;;;;;0.40;99.90;;;;;;5092334;28;20310;-65
2022/01/21 00:58:40;;;;;;;;;;;0.40;99.90;;;;;;5092969;28;19912;-64
2022/01/21 01:01:05;;;;;;;;;;;0.40;99.90;;;;;;5090425;28;19920;-64
2022/01/21 01:03:31;;;;;;;;;;;0.40;99.90;;;;;;5093238;28;20026;-64
2022/01/21 01:05:56;;;;;;;;;;;0.50;99.90;;;;;;5091862;28;19904;-64
2022/01/21 01:08:22;;;;;;;;;;;0.50;99.90;;;;;;5092706;28;19956;-65
2022/01/21 01:21:17;;;;;;;;;;;0.70;99.90;;;;;;5090298;28;19923;-64
2022/01/21 01:29:11;;;;;;;;;;;0.60;99.90;;;;;;5090130;28;19957;-64
2022/01/21 01:31:36;;;;;;;;;;;0.60;99.90;;;;;;5090572;28;19911;-64
2022/01/21 01:34:03;;;;;;;;;;;0.70;99.90;;;;;;5090607;28;19904;-64
2022/01/21 01:36:29;;;;;;;;;;;0.70;99.90;;;;;;5073817;28;19905;-64
2022/01/21 01:42:26;;;;;;;;;;;0.70;99.90;;;;;;5027878;28;19917;-64
2022/01/21 01:50:29;;;;;;;;;;;0.80;99.90;;;;;;5027821;28;19928;-64
2022/01/21 01:52:55;;;;;;;;;;;0.90;99.90;;;;;;5010136;28;19909;-64
2022/01/21 01:55:21;;;;;;;;;;;0.80;99.90;;;;;;5019894;28;19951;-64
2022/01/21 01:57:47;;;;;;;;;;;0.80;99.90;;;;;;5030113;28;19916;-64
2022/01/21 02:00:12;;;;;;;;;;;0.80;99.90;;;;;;5029966;28;19913;-64
2022/01/21 02:02:38;;;;;;;;;;;0.80;99.90;;;;;;5030227;28;20310;-65
2022/01/21 02:05:03;;;;;;;;;;;0.80;99.90;;;;;;5029485;28;20469;-65
2022/01/21 02:07:29;;;;;;;;;;;0.80;99.90;;;;;;5029748;28;19905;-65
2022/01/21 02:09:54;;;;;;;;;;;0.80;99.90;;;;;;5010974;28;20350;-65
2022/01/21 02:12:20;;;;;;;;;;;0.80;99.90;;;;;;5039843;28;19958;-65
2022/01/21 02:14:52;;;;;;;;;;;0.80;99.90;;;;;;5072060;28;19905;-64
2022/01/21 02:21:29;;;;;;;;;;;0.70;99.90;;;;;;5072417;28;20367;-64
2022/01/21 02:22:49;;;;;;;;;;;0.80;99.90;;;;;;5080692;28;19954;-65
2022/01/21 02:25:16;;;;;;;;;;;0.70;99.90;;;;;;5092140;28;19908;-64
2022/01/21 02:27:42;;;;;;;;;;;0.80;99.90;;;;;;5078758;28;20333;-65
2022/01/21 02:30:08;;;;;;;;;;;0.80;99.90;;;;;;5071146;28;20149;-65
2022/01/21 02:32:34;;;;;;;;;;;0.80;99.90;;;;;;5083551;28;20356;-65
2022/01/21 02:34:59;;;;;;;;;;;0.70;99.90;;;;;;5086763;28;19954;-64
2022/01/21 02:37:25;;;;;;;;;;;0.60;99.90;;;;;;5071755;28;19914;-65
2022/01/21 02:39:50;;;;;;;;;;;0.60;99.90;;;;;;5071607;28;19909;-65
2022/01/21 02:42:16;;;;;;;;;;;0.60;99.90;;;;;;5072166;28;19916;-65
2022/01/21 02:44:42;;;;;;;;;;;0.60;99.90;;;;;;5072515;28;19916;-65
2022/01/21 02:47:08;;;;;;;;;;;0.60;99.90;;;;;;5071294;28;20317;-65
2022/01/21 02:49:34;;;;;;;;;;;0.50;99.90;;;;;;5071929;28;19973;-64
2022/01/21 02:52:03;;;;;;;;;;;0.50;99.90;;;;;;5070904;28;20281;-64
2022/01/21 02:54:34;;;;;;;;;;;0.30;99.90;;;;;;5073227;28;19908;-66
2022/01/21 02:57:02;;;;;;;;;;;0.30;99.90;;;;;;5071332;28;19905;-64
2022/01/21 02:59:27;;;;;;;;;;;0.20;99.90;;;;;;5071972;28;19960;-64
2022/01/21 03:01:53;;;;;;;;;;;0.10;99.90;;;;;;5076638;28;20290;-64
2022/01/21 03:07:07;;;;;;;;;;;0.10;99.90;;;;;;5061502;28;20216;-65
2022/01/21 03:09:33;;;;;;;;;;;0.20;99.90;;;;;;5092102;28;20007;-66
2022/01/21 03:11:59;;;;;;;;;;;0.30;99.90;;;;;;5090837;28;19912;-66
2022/01/21 03:14:24;;;;;;;;;;;0.30;99.90;;;;;;5091950;28;19912;-66
2022/01/21 03:16:50;;;;;;;;;;;0.40;99.90;;;;;;5091416;28;19904;-66
2022/01/21 03:19:15;;;;;;;;;;;0.40;99.90;;;;;;5091961;28;19918;-66
2022/01/21 03:21:41;;;;;;;;;;;0.50;99.90;;;;;;5091631;28;19916;-66
2022/01/21 03:24:07;;;;;;;;;;;0.50;99.90;;;;;;5089796;28;19939;-66
2022/01/21 03:26:32;;;;;;;;;;;0.50;99.90;;;;;;5090441;28;20279;-66
2022/01/21 03:28:59;;;;;;;;;;;0.50;99.90;;;;;;5071311;28;19905;-66
2022/01/21 03:31:24;;;;;;;;;;;0.40;99.90;;;;;;5089307;28;19998;-66
2022/01/21 03:33:50;;;;;;;;;;;0.40;99.90;;;;;;5091040;28;19966;-66
2022/01/21 03:36:16;;;;;;;;;;;0.40;99.90;;;;;;5091563;28;19956;-66
2022/01/21 03:38:42;;;;;;;;;;;0.40;99.90;;;;;;5093631;28;19961;-67
2022/01/21 03:41:07;;;;;;;;;;;0.40;99.90;;;;;;5079477;28;19953;-66
2022/01/21 03:43:33;;;;;;;;;;;0.40;99.90;;;;;;5075406;28;20097;-67
2022/01/21 03:45:59;;;;;;;;;;;0.30;99.90;;;;;;5075027;28;19975;-66
2022/01/21 03:48:25;;;;;;;;;;;0.30;99.90;;;;;;5084113;28;19998;-65
2022/01/21 03:50:51;;;;;;;;;;;0.30;99.90;;;;;;5095065;28;19908;-66
2022/01/21 03:53:17;;;;;;;;;;;0.20;99.90;;;;;;5086927;28;19909;-66
2022/01/21 03:55:42;;;;;;;;;;;0.20;99.90;;;;;;5075347;28;19912;-66
2022/01/21 03:58:09;;;;;;;;;;;0.20;99.90;;;;;;5079128;28;19908;-66
2022/01/21 04:00:39;;;;;;;;;;;0.10;99.90;;;;;;5092435;28;19912;-66
2022/01/21 04:03:05;;;;;;;;;;;0.10;99.90;;;;;;5094151;28;19966;-66
2022/01/21 04:05:30;;;;;;;;;;;0.10;99.90;;;;;;5095216;28;20341;-65
2022/01/21 04:07:56;;;;;;;;;;;0.20;99.90;;;;;;5089186;28;19916;-66
2022/01/21 04:10:22;;;;;;;;;;;0.20;99.90;;;;;;5075020;28;19904;-66
2022/01/21 04:12:47;;;;;;;;;;;0.20;99.90;;;;;;5074590;28;19904;-66
2022/01/21 04:15:13;;;;;;;;;;;0.20;99.90;;;;;;5073722;28;19908;-66
2022/01/21 04:17:39;;;;;;;;;;;0.20;99.90;;;;;;5072569;28;19908;-67
2022/01/21 04:20:06;;;;;;;;;;;0.10;99.90;;;;;;5094182;28;20356;-66
2022/01/21 04:22:31;;;;;;;;;;;0.10;99.90;;;;;;5094958;28;20306;-65
2022/01/21 04:24:57;;;;;;;;;;;0.00;99.90;;;;;;5093766;28;19991;-66
2022/01/21 04:27:22;;;;;;;;;;;0.00;99.90;;;;;;5077199;28;19999;-66
2022/01/21 04:29:48;;;;;;;;;;;0.00;99.90;;;;;;5074322;28;19909;-65
2022/01/21 04:32:15;;;;;;;;;;;0.00;99.90;;;;;;5074021;28;19915;-66
2022/01/21 04:34:40;;;;;;;;;;;-0.10;99.90;;;;;;5074861;28;19911;-67
2022/01/21 04:37:09;;;;;;;;;;;-0.10;99.90;;;;;;5088993;28;19908;-66
2022/01/21 04:39:40;;;;;;;;;;;-0.10;99.90;;;;;;5077084;28;19908;-66
2022/01/21 04:47:27;;;;;;;;;;;0.10;99.90;;;;;;5074516;28;19917;-65
2022/01/21 04:49:53;;;;;;;;;;;0.10;99.90;;;;;;5073841;28;19924;-64
2022/01/21 04:52:19;;;;;;;;;;;0.00;99.90;;;;;;5073822;28;19911;-65
2022/01/21 04:54:45;;;;;;;;;;;0.00;99.90;;;;;;5079572;28;19973;-65
2022/01/21 04:57:10;;;;;;;;;;;0.00;99.90;;;;;;5074196;28;19999;-65
2022/01/21 04:59:36;;;;;;;;;;;-0.10;99.90;;;;;;5074355;28;20280;-65
2022/01/21 05:02:02;;;;;;;;;;;-0.20;99.90;;;;;;5055723;28;20321;-65
2022/01/21 05:04:28;;;;;;;;;;;-0.20;99.90;;;;;;5082873;28;19943;-65
2022/01/21 05:06:54;;;;;;;;;;;-0.20;99.90;;;;;;5093755;28;19908;-64
2022/01/21 05:09:23;;;;;;;;;;;-0.10;99.90;;;;;;5094130;28;19997;-65
2022/01/21 05:11:52;;;;;;;;;;;-0.20;99.90;;;;;;5094487;28;19998;-65
2022/01/21 05:14:22;;;;;;;;;;;-0.20;99.90;;;;;;5093949;28;19908;-64
2022/01/21 05:16:49;;;;;;;;;;;-0.10;99.90;;;;;;5094312;28;19904;-65
2022/01/21 05:19:17;;;;;;;;;;;-0.20;99.90;;;;;;5093656;28;19912;-65
2022/01/21 05:21:43;;;;;;;;;;;-0.20;99.90;;;;;;5080031;28;19920;-66
2022/01/21 05:24:09;;;;;;;;;;;-0.10;99.90;;;;;;5073004;28;20422;-64
2022/01/21 05:26:39;;;;;;;;;;;-0.10;99.90;;;;;;5074363;28;19912;-65
2022/01/21 05:29:06;;;;;;;;;;;-0.20;99.90;;;;;;5073294;28;19904;-64
2022/01/21 05:31:31;;;;;;;;;;;-0.20;99.90;;;;;;5073838;28;19935;-65
2022/01/21 05:33:57;;;;;;;;;;;-0.10;99.90;;;;;;5073179;28;20310;-64
2022/01/21 05:36:22;;;;;;;;;;;-0.10;99.90;;;;;;5074069;28;19911;-65
2022/01/21 05:38:48;;;;;;;;;;;-0.10;99.90;;;;;;5091057;28;19912;-65
2022/01/21 05:41:14;;;;;;;;;;;-0.10;99.90;;;;;;5092860;28;19912;-65
2022/01/21 05:43:45;;;;;;;;;;;-0.10;99.90;;;;;;5093855;28;19912;-65
2022/01/21 05:46:32;;;;;;;;;;;0.10;99.90;;;;;;5093007;28;19911;-64
2022/01/21 05:48:58;;;;;;;;;;;0.10;99.90;;;;;;5075493;28;20376;-64
2022/01/21 05:51:23;;;;;;;;;;;0.10;99.90;;;;;;5072886;28;19912;-65
2022/01/21 05:53:49;;;;;;;;;;;0.20;99.90;;;;;;5091227;28;19908;-65
2022/01/21 05:56:15;;;;;;;;;;;0.20;99.90;;;;;;5092653;28;20371;-65
2022/01/21 05:58:41;;;;;;;;;;;0.20;99.90;;;;;;5092749;28;19912;-66
2022/01/21 06:01:06;;;;;;;;;;;0.10;99.90;;;;;;5092135;28;20011;-65
2022/01/21 06:03:32;;;;;;;;;;;0.10;99.90;;;;;;5093384;28;20246;-66
2022/01/21 06:05:58;;;;;;;;;;;0.00;99.90;;;;;;5092868;28;20237;-65
2022/01/21 06:08:23;;;;;;;;;;;0.00;99.90;;;;;;5092684;28;20051;-65
2022/01/21 06:10:49;;;;;;;;;;;0.10;99.90;;;;;;5075037;28;19959;-65
2022/01/21 06:13:17;;;;;;;;;;;0.10;99.90;;;;;;5072357;28;19912;-65
2022/01/21 06:15:43;;;;;;;;;;;0.10;99.90;;;;;;5081124;28;20002;-66
2022/01/21 06:18:08;;;;;;;;;;;0.10;99.90;;;;;;5092539;28;19914;-65
2022/01/21 06:20:34;;;;;;;;;;;0.10;99.90;;;;;;5076885;28;19924;-65
2022/01/21 06:22:59;;;;;;;;;;;0.20;99.90;;;;;;5071909;28;19904;-65
2022/01/21 06:25:25;;;;;;;;;;;0.40;99.90;;;;;;5078152;28;19908;-66
2022/01/21 06:27:50;;;;;;;;;;;0.40;99.90;;;;;;5072032;28;20422;-65
2022/01/21 06:30:16;;;;;;;;;;;0.30;99.90;;;;;;5071462;28;19904;-66
2022/01/21 06:32:42;;;;;;;;;;;0.30;99.90;;;;;;5074250;28;20260;-65
2022/01/21 06:35:08;;;;;;;;;;;0.20;99.90;;;;;;5090508;28;20317;-65
2022/01/21 06:37:33;;;;;;;;;;;0.20;99.90;;;;;;5092054;28;20427;-65
2022/01/21 06:39:59;;;;;;;;;;;0.10;99.90;;;;;;5091230;28;19995;-65
2022/01/21 06:42:26;;;;;;;;;;;0.20;99.90;;;;;;5087541;28;20001;-66
2022/01/21 06:44:52;;;;;;;;;;;0.30;99.90;;;;;;5090781;28;19908;-65
2022/01/21 06:47:19;;;;;;;;;;;0.20;99.90;;;;;;5090698;28;19908;-67
2022/01/21 06:49:45;;;;;;;;;;;0.20;99.90;;;;;;5091686;28;19936;-68
2022/01/21 06:52:10;;;;;;;;;;;0.30;99.90;;;;;;5091083;28;19908;-65
2022/01/21 06:54:36;;;;;;;;;;;0.30;99.90;;;;;;5091731;28;19912;-66
2022/01/21 06:57:01;;;;;;;;;;;0.30;99.90;;;;;;5091200;28;19911;-66
2022/01/21 06:59:27;;;;;;;;;;;0.20;99.90;;;;;;5091183;28;19976;-74
2022/01/21 07:01:52;;;;;;;;;;;0.30;99.90;;;;;;5081676;28;19912;-72
2022/01/21 07:04:18;;;;;;;;;;;0.30;99.90;;;;;;5052354;28;20690;-68
2022/01/21 07:06:43;;;;;;;;;;;0.30;99.90;;;;;;5072249;28;19965;-68
2022/01/21 07:09:09;;;;;;;;;;;0.30;99.90;;;;;;5071848;28;19908;-68
2022/01/21 07:11:35;;;;;;;;;;;0.30;99.90;;;;;;5071526;28;19955;-71
2022/01/21 07:14:00;;;;;;;;;;;0.30;99.90;;;;;;5074096;28;19991;-71
2022/01/21 07:16:26;;;;;;;;;;;0.20;99.90;;;;;;5075844;28;19912;-70
2022/01/21 07:18:51;;;;;;;;;;;0.10;99.90;;;;;;5075982;28;19919;-70
2022/01/21 07:21:17;;;;;;;;;;;0.10;99.90;;;;;;5075266;28;19912;-71
2022/01/21 07:23:42;;;;;;;;;;;0.10;99.90;;;;;;5075478;28;20030;-68
2022/01/21 07:26:09;;;;;;;;;;;0.10;99.90;;;;;;5093286;28;19957;-72
2022/01/21 07:28:34;;;;;;;;;;;0.30;99.90;;;;;;5093135;28;19920;-72
2022/01/21 07:31:00;;;;;;;;;;;0.20;99.90;;;;;;5075463;28;19908;-68
2022/01/21 07:33:25;;;;;;;;;;;0.20;99.90;;;;;;5075905;28;19904;-68
2022/01/21 07:35:51;;;;;;;;;;;0.20;99.90;;;;;;5062719;28;19954;-68
2022/01/21 07:38:16;;;;;;;;;;;0.20;99.90;;;;;;5077998;28;19916;-68
2022/01/21 07:40:42;;;;;;;;;;;0.30;99.90;;;;;;5079482;28;20361;-68
2022/01/21 07:43:08;;;;;;;;;;;0.30;99.90;;;;;;5104330;28;19908;-68
2022/01/21 07:45:34;;;;;;;;;;;0.30;99.90;;;;;;5116942;28;19911;-67
2022/01/21 07:48:00;;;;;;;;;;;0.30;99.90;;;;;;5102184;28;19973;-67
2022/01/21 07:50:25;;;;;;;;;;;0.30;99.90;;;;;;5095366;28;19924;-69
2022/01/21 07:52:51;;;;;;;;;;;0.30;99.90;;;;;;5095928;28;20413;-69
2022/01/21 07:55:16;;;;;;;;;;;0.40;99.90;;;;;;5089577;28;20205;-65
2022/01/21 07:57:42;;;;;;;;;;;0.40;99.90;;;;;;5083404;28;19904;-66
2022/01/21 08:00:07;;;;;;;;;;;0.40;99.90;;;;;;5094922;28;20268;-67
2022/01/21 08:02:34;;;;;;;;;;;0.50;99.90;;;;;;5091944;28;20369;-67
2022/01/21 08:05:02;;;;;;;;;;;0.60;99.90;;;;;;5080936;28;19919;-67
2022/01/21 08:07:28;;;;;;;;;;;0.70;99.90;;;;;;5095235;28;19908;-68
2022/01/21 08:09:53;;;;;;;;;;;0.70;99.90;;;;;;5095238;28;19904;-67
2022/01/21 08:12:19;;;;;;;;;;;0.80;99.90;;;;;;5094686;28;19904;-68
2022/01/21 08:14:45;;;;;;;;;;;0.90;99.90;;;;;;5095390;28;19904;-71
2022/01/21 08:17:11;;;;;;;;;;;1.00;99.90;;;;;;5094514;28;19994;-69
2022/01/21 08:19:36;;;;;;;;;;;1.10;99.90;;;;;;5074960;28;20062;-74
2022/01/21 08:22:02;;;;;;;;;;;1.10;99.90;;;;;;5074509;28;19912;-70
2022/01/21 08:24:28;;;;;;;;;;;1.10;99.90;;;;;;5078532;28;19911;-69
2022/01/21 08:26:53;;;;;;;;;;;1.20;99.90;;;;;;5094800;28;19908;-73
2022/01/21 08:29:19;;;;;;;;;;;1.30;99.90;;;;;;5088916;28;19916;-74
2022/01/21 08:31:45;;;;;;;;;;;1.40;99.90;;;;;;5090223;28;20341;-69
2022/01/21 08:34:11;;;;;;;;;;;1.40;99.90;;;;;;5078426;28;19909;-69
2022/01/21 08:36:38;;;;;;;;;;;1.50;99.90;;;;;;5074515;28;19995;-67
2022/01/21 08:39:04;;;;;;;;;;;1.40;99.90;;;;;;5086748;28;19968;-66
2022/01/21 08:41:29;;;;;;;;;;;1.30;99.90;;;;;;5076410;28;19916;-68
2022/01/21 08:43:55;;;;;;;;;;;1.30;99.90;;;;;;5075308;28;19961;-68
2022/01/21 08:46:21;;;;;;;;;;;1.20;99.90;;;;;;5080207;28;19908;-68
2022/01/21 08:48:47;;;;;;;;;;;1.20;99.90;;;;;;5094119;28;19916;-68
2022/01/21 08:51:18;;;;;;;;;;;1.30;99.90;;;;;;5094222;28;19958;-69
2022/01/21 08:53:45;;;;;;;;;;;1.30;99.90;;;;;;5083003;28;19920;-68
2022/01/21 08:56:12;;;;;;;;;;;1.30;99.90;;;;;;5073688;28;19912;-68
2022/01/21 08:58:38;;;;;;;;;;;1.30;99.90;;;;;;5074210;28;19909;-67
2022/01/21 09:01:04;;;;;;;;;;;1.40;99.90;;;;;;5073656;28;19913;-68
2022/01/21 09:03:29;;;;;;;;;;;1.50;99.90;;;;;;5074244;28;19909;-74
2022/01/21 09:05:55;;;;;;;;;;;1.50;99.90;;;;;;5056116;28;20296;-74
2022/01/21 09:08:23;;;;;;;;;;;1.60;99.90;;;;;;5077423;28;19904;-77
2022/01/21 09:10:52;;;;;;;;;;;1.60;99.90;;;;;;5094470;28;19911;-67
2022/01/21 09:13:19;;;;;;;;;;;1.60;99.90;;;;;;5073398;28;19912;-68
2022/01/21 09:15:44;;;;;;;;;;;1.70;99.90;;;;;;5074856;28;19912;-68
2022/01/21 09:18:11;;;;;;;;;;;1.70;99.90;;;;;;5073042;28;19931;-69
2022/01/21 09:20:37;;;;;;;;;;;1.60;99.90;;;;;;5073834;28;19912;-68
2022/01/21 09:23:03;;;;;;;;;;;1.70;99.90;;;;;;5091353;28;19912;-68
2022/01/21 09:25:28;;;;;;;;;;;1.70;99.90;;;;;;5089551;28;19987;-68
2022/01/21 09:27:54;;;;;;;;;;;1.70;99.90;;;;;;5076354;28;20001;-67
2022/01/21 09:30:20;;;;;;;;;;;1.70;99.90;;;;;;5074142;28;19991;-67
2022/01/21 09:32:46;;;;;;;;;;;1.80;99.90;;;;;;5073412;28;19958;-68
2022/01/21 09:35:11;;;;;;;;;;;1.90;99.90;;;;;;5071820;28;19913;-67
2022/01/21 09:37:37;;;;;;;;;;;1.90;99.90;;;;;;5073470;28;19904;-68
2022/01/21 09:40:04;;;;;;;;;;;2.00;99.90;;;;;;5089813;28;19920;-66
2022/01/21 09:42:32;;;;;;;;;;;2.00;99.90;;;;;;5089700;28;19918;-66
2022/01/21 09:44:58;;;;;;;;;;;2.10;99.90;;;;;;5085470;28;19908;-66
2022/01/21 09:47:24;;;;;;;;;;;2.10;99.90;;;;;;5065231;28;19908;-66
2022/01/21 09:49:50;;;;;;;;;;;2.20;99.90;;;;;;5089578;28;19928;-66
2022/01/21 09:52:19;;;;;;;;;;;2.20;99.90;;;;;;5092364;28;19908;-66
2022/01/21 09:54:48;;;;;;;;;;;2.20;99.90;;;;;;5090226;28;20401;-67
2022/01/21 09:57:22;;;;;;;;;;;2.30;99.90;;;;;;5090010;28;20058;-66
2022/01/21 09:59:48;;;;;;;;;;;2.30;99.90;;;;;;5072764;28;19915;-65
2022/01/21 10:02:16;;;;;;;;;;;2.40;99.90;;;;;;5088820;28;20005;-65
2022/01/21 10:04:42;;;;;;;;;;;2.40;99.90;;;;;;5091890;28;19947;-65
2022/01/21 10:07:10;;;;;;;;;;;2.40;99.90;;;;;;5089582;28;19908;-65
2022/01/21 10:09:37;;;;;;;;;;;2.50;99.90;;;;;;5088848;28;19909;-65
2022/01/21 10:12:03;;;;;;;;;;;2.50;99.90;;;;;;5090832;28;19912;-66
2022/01/21 10:14:29;;;;;;;;;;;2.60;99.90;;;;;;5078566;28;20276;-65
2022/01/21 10:16:55;;;;;;;;;;;2.60;99.90;;;;;;5092267;28;19911;-64
2022/01/21 10:19:29;;;;;;;;;;;2.70;99.90;;;;;;5089972;28;19919;-65
2022/01/21 10:22:02;;;;;;;;;;;2.90;99.90;;;;;;5075678;28;20389;-65
2022/01/21 10:24:28;;;;;;;;;;;2.90;99.90;;;;;;5081135;28;19927;-73
2022/01/21 10:26:55;;;;;;;;;;;3.00;99.90;;;;;;5091582;28;19912;-68
2022/01/21 10:29:22;;;;;;;;;;;3.10;99.90;;;;;;5090573;28;20466;-68
2022/01/21 10:31:52;;;;;;;;;;;3.00;99.90;;;;;;5091131;28;19908;-68
2022/01/21 10:34:23;;;;;;;;;;;2.90;99.90;;;;;;5091632;28;19910;-70
2022/01/21 10:36:54;;;;;;;;;;;2.90;99.90;;;;;;5090698;28;20415;-67
2022/01/21 10:39:29;;;;;;;;;;;2.80;99.90;;;;;;5090131;28;19912;-67
2022/01/21 10:41:57;;;;;;;;;;;2.70;99.90;;;;;;5092027;28;20290;-67
2022/01/21 10:44:25;;;;;;;;;;;2.70;99.90;;;;;;5091005;28;19908;-66
2022/01/21 10:47:08;;;;;;;;;;;2.50;99.90;;;;;;5083925;28;20250;-67
2022/01/21 10:49:35;;;;;;;;;;;2.50;99.90;;;;;;5089055;28;19930;-67
2022/01/21 10:52:02;;;;;;;;;;;2.50;99.90;;;;;;5087836;28;20312;-66
2022/01/21 10:54:30;;;;;;;;;;;2.50;99.90;;;;;;5090749;28;20335;-67
2022/01/21 10:57:05;;;;;;;;;;;2.60;99.90;;;;;;5090570;28;19904;-65
2022/01/21 11:00:03;;;;;;;;;;;2.60;99.90;;;;;;5091365;28;19955;-66
2022/01/21 11:02:29;;;;;;;;;;;2.80;99.90;;;;;;5051335;28;19908;-67
2022/01/21 11:04:57;;;;;;;;;;;2.90;99.90;;;;;;5091396;28;19989;-68
2022/01/21 11:07:42;;;;;;;;;;;3.00;99.90;;;;;;5079950;28;19903;-67
2022/01/21 11:10:07;;;;;;;;;;;3.10;99.90;;;;;;5089766;28;20340;-69
2022/01/21 11:12:33;;;;;;;;;;;3.10;99.90;;;;;;5077040;28;19904;-66
2022/01/21 11:15:00;;;;;;;;;;;3.10;99.90;;;;;;5089197;28;19944;-67
2022/01/21 11:17:26;;;;;;;;;;;3.10;99.90;;;;;;5085851;28;19958;-69
2022/01/21 11:20:01;;;;;;;;;;;3.30;99.90;;;;;;5089017;28;19954;-70
2022/01/21 11:22:28;;;;;;;;;;;3.30;99.90;;;;;;5090740;28;20363;-69
2022/01/21 11:24:55;;;;;;;;;;;3.30;99.90;;;;;;5082232;28;19908;-70
2022/01/21 11:27:21;;;;;;;;;;;3.20;99.90;;;;;;5090909;28;19991;-70
2022/01/21 11:29:47;;;;;;;;;;;3.20;99.90;;;;;;5092149;28;20008;-69
2022/01/21 11:32:13;;;;;;;;;;;3.20;99.90;;;;;;5090863;28;20263;-70
2022/01/21 11:34:41;;;;;;;;;;;3.20;99.90;;;;;;5086001;28;20377;-70
2022/01/21 11:37:09;;;;;;;;;;;3.30;99.90;;;;;;5089282;28;19991;-69
2022/01/21 11:39:35;;;;;;;;;;;3.30;99.90;;;;;;5090001;28;19908;-74
2022/01/21 11:42:02;;;;;;;;;;;3.30;99.90;;;;;;5082563;28;19923;-70
2022/01/21 11:44:29;;;;;;;;;;;3.30;99.90;;;;;;5075178;28;19908;-66
2022/01/21 11:47:47;;;;;;;;;;;3.20;99.90;;;;;;5078507;28;19908;-70
2022/01/21 11:49:58;;;;;;;;;;;3.20;99.90;;;;;;5087886;28;20001;-66
2022/01/21 11:52:24;;;;;;;;;;;3.20;99.90;;;;;;5080475;28;19934;-67
2022/01/21 11:54:50;;;;;;;;;;;3.10;99.90;;;;;;5090953;28;20404;-67
2022/01/21 11:57:25;;;;;;;;;;;3.20;99.90;;;;;;5090038;28;19965;-68
2022/01/21 11:59:58;;;;;;;;;;;3.10;99.90;;;;;;5091953;28;19919;-70
2022/01/21 12:02:26;;;;;;;;;;;3.10;99.90;;;;;;5093729;28;19959;-70
2022/01/21 12:05:10;;;;;;;;;;;3.00;99.90;;;;;;5083938;28;19904;-76
2022/01/21 12:10:13;;;;;;;;;;;2.90;99.90;;;;;;5076753;28;19908;-67
2022/01/21 12:13:05;;;;;;;;;;;2.90;99.90;;;;;;5091351;28;19916;-69
2022/01/21 12:18:07;;;;;;;;;;;2.90;99.90;;;;;;5093173;28;19908;-71
2022/01/21 12:20:34;;;;;;;;;;;2.90;99.90;;;;;;5078773;28;19951;-70
2022/01/21 12:23:14;;;;;;;;;;;3.00;99.90;;;;;;5094527;28;19930;-67
2022/01/21 12:25:58;;;;;;;;;;;3.10;99.90;;;;;;5094587;28;19935;-69
2022/01/21 12:28:24;;;;;;;;;;;3.10;99.90;;;;;;5093351;28;19927;-69
2022/01/21 12:30:53;;;;;;;;;;;3.10;99.90;;;;;;5094065;28;19904;-70
2022/01/21 12:33:19;;;;;;;;;;;3.00;99.90;;;;;;5093507;28;19911;-69
2022/01/21 12:35:45;;;;;;;;;;;2.90;99.90;;;;;;5094374;28;19908;-69
2022/01/21 12:40:54;;;;;;;;;;;3.00;99.90;;;;;;5093272;28;20015;-70
2022/01/21 12:43:36;;;;;;;;;;;2.90;99.90;;;;;;5093311;28;19949;-73
2022/01/21 12:46:03;;;;;;;;;;;3.00;99.90;;;;;;5093397;28;20330;-72
2022/01/21 12:48:34;;;;;;;;;;;3.00;99.90;;;;;;5076832;28;20004;-68
2022/01/21 12:51:14;;;;;;;;;;;3.10;99.90;;;;;;5093393;28;20430;-68
2022/01/21 12:55:55;;;;;;;;;;;3.10;99.90;;;;;;5092972;28;20357;-70
2022/01/21 12:56:27;;;;;;;;;;;3.10;99.90;;;;;;5093038;28;20776;-69
2022/01/21 12:58:52;;;;;;;;;;;3.10;99.90;;;;;;5090699;28;20390;-68
2022/01/21 13:01:19;;;;;;;;;;;3.10;99.90;;;;;;5088279;28;19908;-69
2022/01/21 13:04:01;;;;;;;;;;;3.10;99.90;;;;;;5092426;28;19908;-71
2022/01/21 13:06:35;;;;;;;;;;;3.10;99.90;;;;;;5087990;28;20402;-69
2022/01/21 13:09:03;;;;;;;;;;;3.10;99.90;;;;;;5092503;28;20315;-68
2022/01/21 13:11:30;;;;;;;;;;;3.10;99.90;;;;;;5092348;28;20117;-69
2022/01/21 13:17:09;;;;;;;;;;;3.10;99.90;;;;;;5081292;28;19908;-70
2022/01/21 13:19:43;;;;;;;;;;;3.10;99.90;;;;;;5093503;28;19916;-70
2022/01/21 13:22:14;;;;;;;;;;;3.10;99.90;;;;;;5076112;28;19913;-73
2022/01/21 13:24:51;;;;;;;;;;;3.10;99.90;;;;;;5093170;28;20379;-69
2022/01/21 13:27:16;;;;;;;;;;;3.10;99.90;;;;;;5093044;28;19995;-68
2022/01/21 13:29:42;;;;;;;;;;;3.20;99.90;;;;;;5093818;28;19998;-70
2022/01/21 13:32:07;;;;;;;;;;;3.20;99.90;;;;;;5078165;28;19909;-69
2022/01/21 13:34:36;;;;;;;;;;;3.20;99.90;;;;;;5093254;28;19953;-68
2022/01/21 13:37:03;;;;;;;;;;;3.30;99.90;;;;;;5093235;28;19911;-68
2022/01/21 13:39:32;;;;;;;;;;;3.20;99.90;;;;;;5092560;28;19982;-70
2022/01/21 13:42:01;;;;;;;;;;;3.20;99.90;;;;;;5082042;28;19930;-69
2022/01/21 13:44:31;;;;;;;;;;;3.20;99.90;;;;;;5092202;28;19995;-67
2022/01/21 13:46:58;;;;;;;;;;;3.30;99.90;;;;;;5088475;28;19969;-67
2022/01/21 13:49:25;;;;;;;;;;;3.30;99.90;;;;;;5083579;28;19943;-71
2022/01/21 13:51:55;;;;;;;;;;;3.30;99.90;;;;;;5092340;28;19916;-68
2022/01/21 13:54:37;;;;;;;;;;;3.20;99.90;;;;;;5090077;28;19964;-67
2022/01/21 13:57:03;;;;;;;;;;;3.20;99.90;;;;;;5080063;28;19910;-67
2022/01/21 13:59:30;;;;;;;;;;;3.10;99.90;;;;;;5092283;28;20020;-67
2022/01/21 14:02:10;;;;;;;;;;;3.00;99.90;;;;;;5092909;28;19911;-67
2022/01/21 14:04:36;;;;;;;;;;;3.00;99.90;;;;;;5077280;28;20322;-67
2022/01/21 14:07:02;;;;;;;;;;;3.00;99.90;;;;;;5091375;28;19912;-68
2022/01/21 14:09:27;;;;;;;;;;;3.10;99.90;;;;;;5092055;28;19968;-67
2022/01/21 14:11:53;;;;;;;;;;;3.10;99.90;;;;;;5092384;28;19911;-67
2022/01/21 14:14:21;;;;;;;;;;;3.20;99.90;;;;;;5091888;28;19966;-67
2022/01/21 14:16:50;;;;;;;;;;;3.20;99.90;;;;;;5083693;28;19947;-66
2022/01/21 14:19:18;;;;;;;;;;;3.30;99.90;;;;;;5092035;28;20008;-66
2022/01/21 14:21:47;;;;;;;;;;;3.30;99.90;;;;;;5092194;28;19916;-66
2022/01/21 14:24:20;;;;;;;;;;;3.30;99.90;;;;;;5092016;28;19904;-67
2022/01/21 14:26:48;;;;;;;;;;;3.40;99.90;;;;;;5092149;28;19908;-67
2022/01/21 14:29:13;;;;;;;;;;;3.30;99.90;;;;;;5090553;28;19954;-67
2022/01/21 14:31:40;;;;;;;;;;;3.30;99.90;;;;;;5092831;28;19904;-67
2022/01/21 14:34:20;;;;;;;;;;;3.30;99.90;;;;;;5092352;28;19962;-67
2022/01/21 14:37:06;;;;;;;;;;;3.30;99.90;;;;;;5078367;28;19908;-67
2022/01/21 14:39:33;;;;;;;;;;;3.30;99.90;;;;;;5090578;28;19911;-67
2022/01/21 14:41:59;;;;;;;;;;;3.30;99.90;;;;;;5092297;28;20429;-67
2022/01/21 14:44:34;;;;;;;;;;;3.30;99.90;;;;;;5091041;28;19908;-68
2022/01/21 14:47:16;;;;;;;;;;;3.30;99.90;;;;;;5088487;28;19912;-67
2022/01/21 14:49:44;;;;;;;;;;;3.30;99.90;;;;;;5077956;28;19920;-67
2022/01/21 14:55:08;;;;;;;;;;;3.20;99.90;;;;;;5091857;28;20330;-68
2022/01/21 14:57:34;;;;;;;;;;;3.20;99.90;;;;;;5092245;28;19914;-67
2022/01/21 15:00:02;;;;;;;;;;;3.20;99.90;;;;;;5061054;28;20297;-67
2022/01/21 15:02:38;;;;;;;;;;;3.20;99.90;;;;;;5075097;28;19990;-68
2022/01/21 15:05:10;;;;;;;;;;;3.10;99.90;;;;;;5089073;28;19915;-66
2022/01/21 15:07:36;;;;;;;;;;;3.10;99.90;;;;;;5091434;28;20089;-67
2022/01/21 15:10:16;;;;;;;;;;;3.00;99.90;;;;;;5090568;28;19904;-67
2022/01/21 15:15:32;;;;;;;;;;;3.00;99.90;;;;;;5090175;28;19954;-68
2022/01/21 15:17:58;;;;;;;;;;;3.00;99.90;;;;;;5091646;28;19908;-67
2022/01/21 15:20:29;;;;;;;;;;;3.00;99.90;;;;;;5090185;28;19997;-67
2022/01/21 15:22:54;;;;;;;;;;;2.90;99.90;;;;;;5091771;28;20311;-69
2022/01/21 15:25:20;;;;;;;;;;;2.90;99.90;;;;;;5079679;28;19909;-70
2022/01/21 15:27:45;;;;;;;;;;;2.80;99.90;;;;;;5086118;28;19904;-67
2022/01/21 15:30:11;;;;;;;;;;;2.90;99.90;;;;;;5085961;28;19908;-64
2022/01/21 15:32:37;;;;;;;;;;;2.80;99.90;;;;;;5080619;28;20003;-72
2022/01/21 15:35:03;;;;;;;;;;;2.70;99.90;;;;;;5095063;28;19940;-70